createdAt,value
2022-11-07T00:01:24.359Z,9.80
2022-11-07T00:03:45.974Z,9.81
2022-11-07T00:06:08.058Z,9.72
2022-11-07T00:08:32.130Z,9.73
2022-11-07T00:10:54.682Z,9.85
2022-11-07T00:13:16.487Z,9.82
2022-11-07T00:15:38.240Z,9.94
2022-11-07T00:17:59.722Z,9.97
2022-11-07T00:20:21.200Z,9.93
2022-11-07T00:22:42.674Z,9.95
2022-11-07T00:25:04.533Z,9.97
2022-11-07T00:27:26.031Z,10.23
2022-11-07T00:29:47.610Z,10.52
2022-11-07T00:32:09.119Z,10.47
2022-11-07T00:34:32.857Z,10.30
2022-11-07T00:36:54.387Z,10.44
2022-11-07T00:39:15.919Z,10.74
2022-11-07T00:41:37.556Z,10.62
2022-11-07T00:43:59.025Z,10.66
2022-11-07T00:46:21.178Z,10.66
2022-11-07T00:48:43.036Z,10.55
2022-11-07T00:51:06.219Z,10.59
2022-11-07T00:53:27.680Z,10.84
2022-11-07T00:55:49.206Z,10.75
2022-11-07T00:58:13.835Z,10.53
2022-11-07T01:00:37.129Z,10.72
2022-11-07T01:03:17.163Z,10.61
2022-11-07T01:05:38.974Z,10.54
2022-11-07T01:08:00.454Z,10.68
2022-11-07T01:10:21.973Z,10.71
2022-11-07T01:12:44.053Z,10.81
2022-11-07T01:15:05.936Z,10.86
2022-11-07T01:17:27.405Z,10.87
2022-11-07T01:19:48.874Z,10.78
2022-11-07T01:22:11.590Z,10.79
2022-11-07T01:24:33.070Z,10.65
2022-11-07T01:26:54.498Z,10.87
2022-11-07T01:29:17.194Z,10.84
2022-11-07T01:31:38.678Z,10.85
2022-11-07T01:34:00.993Z,10.61
2022-11-07T01:36:22.467Z,10.84
2022-11-07T01:38:48.488Z,10.68
2022-11-07T01:41:21.930Z,10.88
2022-11-07T01:43:49.822Z,11.07
2022-11-07T01:46:11.386Z,10.98
2022-11-07T01:48:33.139Z,11.09
2022-11-07T01:50:54.708Z,11.19
2022-11-07T01:53:16.494Z,11.29
2022-11-07T01:55:38.232Z,11.41
2022-11-07T01:58:07.570Z,11.36
2022-11-07T02:00:29.306Z,11.32
2022-11-07T02:03:09.132Z,11.36
2022-11-07T02:05:58.987Z,11.51
2022-11-07T02:08:21.951Z,11.47
2022-11-07T02:10:44.058Z,11.13
2022-11-07T02:13:05.807Z,11.05
2022-11-07T02:15:27.396Z,11.12
2022-11-07T02:17:49.556Z,11.18
2022-11-07T02:20:11.672Z,11.18
2022-11-07T02:22:46.800Z,11.24
2022-11-07T02:25:14.211Z,11.14
2022-11-07T02:27:37.316Z,11.24
2022-11-07T02:30:06.288Z,11.23
2022-11-07T02:32:27.924Z,11.07
2022-11-07T02:35:00.138Z,11.04
2022-11-07T02:37:26.936Z,11.15
2022-11-07T02:39:48.475Z,10.96
2022-11-07T02:42:10.448Z,11.04
2022-11-07T02:44:32.873Z,11.09
2022-11-07T02:46:54.541Z,10.69
2022-11-07T02:49:16.072Z,10.58
2022-11-07T02:51:37.552Z,10.58
2022-11-07T02:53:59.048Z,10.59
2022-11-07T02:56:21.502Z,10.66
2022-11-07T02:58:43.026Z,10.76
2022-11-07T03:01:09.117Z,10.71
2022-11-07T03:03:30.735Z,10.79
2022-11-07T03:05:52.181Z,10.60
2022-11-07T03:08:13.658Z,10.65
2022-11-07T03:10:35.130Z,10.51
2022-11-07T03:12:56.650Z,10.58
2022-11-07T03:15:18.192Z,10.55
2022-11-07T03:17:40.513Z,10.57
2022-11-07T03:20:02.351Z,10.55
2022-11-07T03:22:23.842Z,10.55
2022-11-07T03:24:45.319Z,10.63
2022-11-07T03:27:06.815Z,10.72
2022-11-07T03:29:28.311Z,10.85
2022-11-07T03:31:49.804Z,10.94
2022-11-07T03:34:11.377Z,10.93
2022-11-07T03:36:34.092Z,11.08
2022-11-07T03:38:55.579Z,11.09
2022-11-07T03:41:17.446Z,11.07
2022-11-07T03:43:38.950Z,11.04
2022-11-07T03:46:00.418Z,10.91
2022-11-07T03:48:21.910Z,11.16
2022-11-07T03:50:43.375Z,11.16
2022-11-07T03:53:04.825Z,11.19
2022-11-07T03:55:26.282Z,11.24
2022-11-07T03:57:48.111Z,11.27
2022-11-07T04:00:10.599Z,11.53
2022-11-07T04:02:32.178Z,11.32
2022-11-07T04:04:53.726Z,11.13
2022-11-07T04:07:15.414Z,11.23
2022-11-07T04:09:36.887Z,11.21
2022-11-07T04:12:16.806Z,11.15
2022-11-07T04:14:56.627Z,11.20
2022-11-07T04:17:21.031Z,11.18
2022-11-07T04:19:42.546Z,11.13
2022-11-07T04:22:04.033Z,11.07
2022-11-07T04:24:25.523Z,11.12
2022-11-07T04:27:05.779Z,11.23
2022-11-07T04:29:27.262Z,11.17
2022-11-07T04:31:48.737Z,11.31
2022-11-07T04:34:10.207Z,11.31
2022-11-07T04:36:31.682Z,11.04
2022-11-07T04:38:53.135Z,11.06
2022-11-07T04:41:24.480Z,10.92
2022-11-07T04:43:45.922Z,11.03
2022-11-07T04:46:07.376Z,10.93
2022-11-07T04:48:28.846Z,11.02
2022-11-07T04:50:50.641Z,11.02
2022-11-07T04:53:13.569Z,10.84
2022-11-07T04:55:35.263Z,10.83
2022-11-07T04:57:57.455Z,10.97
2022-11-07T05:00:20.058Z,11.07
2022-11-07T05:02:42.077Z,11.02
2022-11-07T05:05:04.204Z,10.91
2022-11-07T05:07:25.704Z,11.03
2022-11-07T05:09:47.310Z,11.16
2022-11-07T05:12:08.949Z,11.10
2022-11-07T05:14:33.306Z,11.23
2022-11-07T05:16:55.121Z,11.20
2022-11-07T05:19:18.367Z,11.31
2022-11-07T05:21:39.888Z,11.26
2022-11-07T05:24:01.374Z,11.37
2022-11-07T05:26:22.856Z,11.48
2022-11-07T05:28:44.322Z,11.41
2022-11-07T05:31:07.487Z,11.48
2022-11-07T05:33:29.275Z,11.57
2022-11-07T05:35:50.766Z,11.63
2022-11-07T05:38:13.166Z,11.81
2022-11-07T05:40:35.814Z,11.78
2022-11-07T05:43:01.718Z,11.74
2022-11-07T05:45:23.167Z,11.75
2022-11-07T05:47:44.753Z,11.94
2022-11-07T05:50:06.755Z,11.95
2022-11-07T05:52:28.229Z,11.94
2022-11-07T05:54:49.682Z,11.96
2022-11-07T05:57:11.166Z,11.88
2022-11-07T05:59:32.656Z,11.83
2022-11-07T06:01:54.296Z,11.83
2022-11-07T06:04:15.928Z,11.75
2022-11-07T06:06:37.490Z,11.69
2022-11-07T06:08:59.096Z,11.82
2022-11-07T06:11:20.556Z,11.93
2022-11-07T06:13:41.985Z,12.05
2022-11-07T06:16:03.975Z,12.08
2022-11-07T06:18:25.553Z,11.95
2022-11-07T06:20:47.081Z,12.00
2022-11-07T06:23:08.926Z,11.87
2022-11-07T06:25:30.657Z,11.91
2022-11-07T06:27:52.291Z,12.06
2022-11-07T06:30:13.773Z,12.12
2022-11-07T06:32:36.573Z,12.25
2022-11-07T06:34:58.126Z,12.08
2022-11-07T06:37:20.063Z,12.13
2022-11-07T06:39:41.519Z,12.12
2022-11-07T06:42:03.089Z,12.18
2022-11-07T06:44:24.534Z,12.18
2022-11-07T06:46:48.651Z,12.15
2022-11-07T06:49:11.267Z,12.18
2022-11-07T06:51:32.757Z,12.40
2022-11-07T06:53:54.413Z,12.24
2022-11-07T06:56:16.465Z,12.43
2022-11-07T06:58:38.009Z,12.42
2022-11-07T07:01:04.194Z,12.47
2022-11-07T07:03:25.678Z,12.48
2022-11-07T07:05:47.148Z,12.38
2022-11-07T07:08:13.030Z,12.49
2022-11-07T07:10:44.827Z,12.44
2022-11-07T07:13:06.596Z,12.63
2022-11-07T07:15:28.176Z,12.59
2022-11-07T07:17:49.656Z,12.50
2022-11-07T07:20:11.599Z,12.67
2022-11-07T07:22:33.087Z,12.84
2022-11-07T07:24:54.626Z,13.00
2022-11-07T07:27:16.134Z,13.07
2022-11-07T07:29:37.599Z,13.00
2022-11-07T07:31:59.058Z,13.08
2022-11-07T07:34:20.553Z,12.91
2022-11-07T07:36:42.072Z,13.08
2022-11-07T07:39:03.656Z,13.01
2022-11-07T07:41:25.174Z,12.75
2022-11-07T07:43:46.739Z,12.81
2022-11-07T07:46:08.972Z,13.12
2022-11-07T07:48:31.375Z,13.09
2022-11-07T07:50:52.973Z,12.93
2022-11-07T07:53:14.719Z,13.06
2022-11-07T07:55:36.361Z,13.31
2022-11-07T07:57:57.833Z,13.21
2022-11-07T08:00:19.842Z,12.98
2022-11-07T08:02:43.892Z,12.76
2022-11-07T08:05:05.931Z,12.66
2022-11-07T08:07:27.521Z,12.66
2022-11-07T08:09:48.993Z,12.67
2022-11-07T08:12:10.454Z,12.59
2022-11-07T08:14:32.810Z,12.78
2022-11-07T08:16:54.257Z,12.65
2022-11-07T08:19:15.753Z,12.77
2022-11-07T08:21:37.206Z,12.79
2022-11-07T08:23:58.699Z,12.85
2022-11-07T08:26:20.590Z,12.83
2022-11-07T08:28:42.050Z,12.94
2022-11-07T08:31:09.760Z,12.83
2022-11-07T08:33:31.625Z,12.83
2022-11-07T08:35:57.738Z,12.80
2022-11-07T08:38:19.190Z,12.95
2022-11-07T08:40:40.872Z,12.74
2022-11-07T08:43:02.326Z,12.78
2022-11-07T08:45:23.816Z,12.79
2022-11-07T08:47:45.368Z,12.85
2022-11-07T08:50:08.043Z,13.05
2022-11-07T08:52:29.546Z,13.23
2022-11-07T08:54:51.074Z,13.12
2022-11-07T08:57:12.555Z,13.13
2022-11-07T08:59:34.029Z,13.27
2022-11-07T09:02:36.989Z,13.33
2022-11-07T09:04:37.730Z,13.53
2022-11-07T09:06:59.258Z,13.50
2022-11-07T09:09:20.767Z,13.62
2022-11-07T09:11:42.533Z,13.68
2022-11-07T09:14:04.346Z,13.87
2022-11-07T09:16:25.865Z,13.71
2022-11-07T09:18:48.952Z,13.88
2022-11-07T09:21:11.198Z,13.99
2022-11-07T09:23:32.728Z,13.72
2022-11-07T09:25:54.677Z,13.80
2022-11-07T09:28:16.371Z,13.67
2022-11-07T09:30:37.870Z,13.64
2022-11-07T09:32:59.349Z,13.57
2022-11-07T09:35:20.850Z,13.61
2022-11-07T09:37:42.854Z,13.69
2022-11-07T09:40:05.209Z,13.61
2022-11-07T09:42:50.609Z,14.09
2022-11-07T09:45:13.869Z,14.36
2022-11-07T09:48:00.138Z,14.49
2022-11-07T09:50:34.036Z,14.38
2022-11-07T09:52:57.882Z,14.27
2022-11-07T09:55:23.413Z,14.29
2022-11-07T09:57:45.768Z,13.93
2022-11-07T10:00:15.055Z,13.82
2022-11-07T10:02:43.546Z,13.98
2022-11-07T10:05:06.014Z,13.91
2022-11-07T10:07:42.683Z,14.01
2022-11-07T10:10:37.065Z,14.03
2022-11-07T10:13:17.152Z,13.98
2022-11-07T10:15:57.255Z,14.14
2022-11-07T10:18:52.136Z,14.10
2022-11-07T10:21:38.892Z,14.09
2022-11-07T10:24:25.421Z,14.08
2022-11-07T10:26:46.981Z,14.21
2022-11-07T10:29:20.717Z,14.24
2022-11-07T10:31:59.678Z,14.20
2022-11-07T10:34:29.146Z,14.05
2022-11-07T10:36:51.331Z,14.04
2022-11-07T10:39:18.864Z,13.91
2022-11-07T10:41:43.753Z,13.72
2022-11-07T10:44:10.607Z,13.67
2022-11-07T10:46:39.390Z,13.55
2022-11-07T10:49:03.128Z,13.41
2022-11-07T10:51:34.564Z,13.58
2022-11-07T10:53:56.066Z,13.59
2022-11-07T10:56:19.411Z,13.85
2022-11-07T10:58:44.892Z,14.36
2022-11-07T11:01:09.207Z,14.34
2022-11-07T11:03:45.380Z,14.47
2022-11-07T11:06:21.653Z,14.41
2022-11-07T11:08:43.219Z,14.49
2022-11-07T11:11:29.993Z,14.29
2022-11-07T11:14:12.142Z,14.32
2022-11-07T11:16:37.555Z,14.66
2022-11-07T11:19:01.248Z,14.46
2022-11-07T11:21:23.387Z,14.67
2022-11-07T11:23:46.845Z,14.81
2022-11-07T11:26:21.529Z,14.82
2022-11-07T11:28:48.444Z,15.16
2022-11-07T11:31:26.541Z,15.25
2022-11-07T11:33:53.896Z,15.18
2022-11-07T11:36:23.687Z,15.06
2022-11-07T11:38:55.481Z,14.95
2022-11-07T11:41:23.315Z,14.92
2022-11-07T11:43:54.403Z,14.87
2022-11-07T11:46:30.689Z,14.61
2022-11-07T11:48:57.523Z,14.53
2022-11-07T11:51:27.320Z,14.44
2022-11-07T11:53:48.957Z,14.45
2022-11-07T11:56:31.535Z,14.51
2022-11-07T11:59:28.207Z,14.23
2022-11-07T12:02:05.178Z,14.16
2022-11-07T12:04:29.626Z,14.03
2022-11-07T12:07:00.462Z,14.04
2022-11-07T12:09:44.257Z,14.09
2022-11-07T12:12:25.743Z,13.88
2022-11-07T12:15:09.238Z,13.88
2022-11-07T12:17:52.676Z,13.89
2022-11-07T12:20:36.143Z,13.95
2022-11-07T12:23:03.499Z,13.81
2022-11-07T12:25:30.031Z,13.97
2022-11-07T12:28:00.228Z,13.93
2022-11-07T12:30:31.294Z,13.92
2022-11-07T12:33:15.001Z,13.91
2022-11-07T12:36:03.305Z,14.03
2022-11-07T12:39:12.428Z,13.88
2022-11-07T12:41:57.515Z,13.90
2022-11-07T12:44:34.135Z,13.73
2022-11-07T12:46:58.720Z,13.96
2022-11-07T12:49:36.162Z,13.76
2022-11-07T12:52:16.240Z,13.89
2022-11-07T12:54:56.545Z,14.05
2022-11-07T12:57:21.808Z,13.94
2022-11-07T12:59:50.387Z,14.03
2022-11-07T13:02:44.730Z,14.15
2022-11-07T13:05:18.459Z,14.19
2022-11-07T13:07:50.592Z,14.17
2022-11-07T13:10:36.994Z,14.07
2022-11-07T13:13:15.392Z,14.10
2022-11-07T13:16:09.011Z,14.16
2022-11-07T13:18:25.302Z,14.23
2022-11-07T13:20:47.148Z,14.31
2022-11-07T13:23:16.335Z,14.08
2022-11-07T13:25:39.013Z,14.19
2022-11-07T13:28:05.129Z,14.14
2022-11-07T13:30:36.039Z,14.22
2022-11-07T13:32:59.418Z,14.37
2022-11-07T13:35:23.616Z,14.48
2022-11-07T13:37:48.028Z,14.40
2022-11-07T13:40:44.834Z,14.35
2022-11-07T13:43:20.820Z,14.18
2022-11-07T13:45:45.250Z,14.12
2022-11-07T13:48:16.837Z,14.15
2022-11-07T13:50:46.675Z,14.21
2022-11-07T13:53:24.770Z,14.29
2022-11-07T13:55:56.073Z,14.14
2022-11-07T13:58:19.459Z,14.18
2022-11-07T14:00:41.046Z,14.31
2022-11-07T14:03:02.692Z,14.00
2022-11-07T14:05:30.243Z,14.00
2022-11-07T14:07:55.438Z,14.12
2022-11-07T14:10:22.249Z,14.24
2022-11-07T14:12:43.978Z,14.28
2022-11-07T14:15:06.788Z,14.17
2022-11-07T14:17:32.791Z,14.21
2022-11-07T14:20:06.080Z,14.05
2022-11-07T14:22:28.107Z,14.01
2022-11-07T14:24:55.242Z,13.97
2022-11-07T14:27:16.737Z,13.90
2022-11-07T14:29:38.425Z,13.96
2022-11-07T14:32:05.253Z,13.88
2022-11-07T14:34:27.067Z,13.85
2022-11-07T14:36:52.821Z,13.84
2022-11-07T14:39:15.926Z,13.76
2022-11-07T14:41:40.964Z,13.82
2022-11-07T14:44:04.088Z,13.72
2022-11-07T14:46:25.972Z,13.79
2022-11-07T14:48:49.679Z,13.84
2022-11-07T14:51:14.923Z,13.77
2022-11-07T14:53:47.207Z,13.69
2022-11-07T14:56:13.718Z,13.71
2022-11-07T14:58:35.443Z,13.74
2022-11-07T15:01:10.185Z,13.65
2022-11-07T15:03:34.234Z,13.65
2022-11-07T15:05:55.744Z,13.70
2022-11-07T15:08:34.586Z,13.53
2022-11-07T15:11:20.556Z,13.60
2022-11-07T15:13:42.655Z,13.60
2022-11-07T15:16:07.857Z,13.58
2022-11-07T15:18:30.203Z,13.56
2022-11-07T15:21:01.423Z,13.56
2022-11-07T15:23:22.832Z,13.47
2022-11-07T15:25:56.687Z,13.52
2022-11-07T15:28:19.974Z,13.50
2022-11-07T15:30:43.599Z,13.43
2022-11-07T15:33:06.685Z,13.48
2022-11-07T15:35:44.754Z,13.58
2022-11-07T15:38:07.351Z,13.56
2022-11-07T15:40:29.379Z,13.54
2022-11-07T15:42:50.893Z,13.46
2022-11-07T15:45:12.647Z,13.36
2022-11-07T15:47:34.937Z,13.24
2022-11-07T15:49:56.510Z,13.20
2022-11-07T15:52:17.970Z,13.18
2022-11-07T15:54:39.433Z,13.09
2022-11-07T15:57:04.495Z,13.10
2022-11-07T15:59:31.743Z,13.05
2022-11-07T16:01:53.369Z,13.06
2022-11-07T16:04:15.053Z,13.06
2022-11-07T16:06:38.935Z,13.05
2022-11-07T16:09:06.441Z,13.12
2022-11-07T16:11:27.927Z,13.28
2022-11-07T16:13:50.886Z,13.18
2022-11-07T16:16:24.457Z,13.08
2022-11-07T16:18:49.849Z,13.08
2022-11-07T16:21:11.421Z,13.20
2022-11-07T16:23:32.944Z,13.31
2022-11-07T16:25:55.525Z,13.25
2022-11-07T16:28:25.347Z,13.16
2022-11-07T16:30:46.852Z,13.07
2022-11-07T16:33:10.709Z,13.10
2022-11-07T16:35:32.151Z,13.05
2022-11-07T16:37:53.742Z,12.96
2022-11-07T16:40:18.949Z,13.10
2022-11-07T16:42:40.535Z,13.14
2022-11-07T16:45:02.398Z,13.06
2022-11-07T16:47:24.059Z,13.12
2022-11-07T16:49:45.638Z,13.24
2022-11-07T16:52:09.706Z,13.18
2022-11-07T16:54:31.198Z,13.11
2022-11-07T16:56:53.183Z,13.17
2022-11-07T16:59:22.552Z,13.05
2022-11-07T17:01:44.280Z,12.98
2022-11-07T17:04:06.267Z,12.86
2022-11-07T17:06:31.332Z,12.81
2022-11-07T17:08:52.955Z,12.86
2022-11-07T17:11:16.319Z,12.84
2022-11-07T17:13:37.796Z,12.91
2022-11-07T17:15:59.660Z,12.82
2022-11-07T17:18:22.854Z,12.90
2022-11-07T17:20:52.304Z,12.98
2022-11-07T17:23:14.707Z,12.97
2022-11-07T17:25:37.614Z,13.03
2022-11-07T17:27:59.082Z,13.11
2022-11-07T17:30:20.675Z,13.15
2022-11-07T17:32:42.141Z,13.15
2022-11-07T17:35:30.714Z,13.12
2022-11-07T17:37:45.321Z,13.16
2022-11-07T17:40:07.319Z,13.25
2022-11-07T17:42:31.541Z,13.33
2022-11-07T17:44:55.299Z,13.28
2022-11-07T17:47:34.364Z,13.23
2022-11-07T17:49:57.031Z,13.36
2022-11-07T17:52:18.482Z,13.42
2022-11-07T17:54:39.956Z,13.39
2022-11-07T17:57:03.640Z,13.57
2022-11-07T17:59:25.559Z,13.74
2022-11-07T18:01:47.286Z,13.66
2022-11-07T18:04:10.868Z,13.65
2022-11-07T18:06:37.651Z,13.72
2022-11-07T18:09:00.737Z,13.62
2022-11-07T18:11:25.740Z,13.54
2022-11-07T18:13:50.731Z,13.86
2022-11-07T18:16:18.534Z,13.90
2022-11-07T18:18:40.024Z,13.99
2022-11-07T18:21:02.328Z,13.93
2022-11-07T18:23:23.828Z,13.97
2022-11-07T18:25:45.297Z,13.92
2022-11-07T18:28:07.005Z,13.83
2022-11-07T18:30:30.099Z,13.81
2022-11-07T18:32:51.633Z,13.86
2022-11-07T18:35:13.237Z,13.93
2022-11-07T18:40:06.766Z,13.97
2022-11-07T18:42:29.269Z,13.93
2022-11-07T18:44:50.899Z,14.03
2022-11-07T18:47:12.369Z,14.05
2022-11-07T18:49:33.847Z,14.22
2022-11-07T18:51:55.389Z,14.17
2022-11-07T18:54:16.954Z,14.27
2022-11-07T18:56:39.756Z,14.18
2022-11-07T18:59:01.307Z,14.17
2022-11-07T19:01:28.624Z,14.11
2022-11-07T19:03:50.315Z,14.16
2022-11-07T19:06:14.378Z,14.17
2022-11-07T19:08:39.031Z,14.22
2022-11-07T19:11:02.586Z,14.17
2022-11-07T19:13:26.472Z,14.07
2022-11-07T19:15:47.990Z,13.91
2022-11-07T19:18:09.492Z,13.77
2022-11-07T19:20:30.970Z,13.61
2022-11-07T19:22:52.473Z,13.74
2022-11-07T19:25:18.821Z,13.75
2022-11-07T19:27:41.301Z,13.58
2022-11-07T19:30:03.543Z,13.70
2022-11-07T19:32:25.143Z,13.88
2022-11-07T19:34:46.737Z,13.84
2022-11-07T19:37:08.233Z,13.76
2022-11-07T19:39:32.690Z,13.66
2022-11-07T19:41:55.246Z,13.58
2022-11-07T19:44:16.748Z,13.62
2022-11-07T19:46:38.309Z,13.63
2022-11-07T19:48:59.808Z,13.67
2022-11-07T19:51:23.359Z,13.62
2022-11-07T19:53:45.000Z,13.64
2022-11-07T19:56:09.194Z,13.63
2022-11-07T19:58:30.717Z,13.60
2022-11-07T20:00:52.467Z,13.54
2022-11-07T20:03:14.226Z,13.50
2022-11-07T20:05:38.475Z,13.49
2022-11-07T20:08:05.037Z,13.44
2022-11-07T20:10:26.914Z,13.46
2022-11-07T20:12:48.895Z,13.43
2022-11-07T20:15:11.245Z,13.45
2022-11-07T20:17:32.718Z,13.62
2022-11-07T20:19:54.193Z,13.85
2022-11-07T20:22:15.679Z,13.87
2022-11-07T20:24:37.247Z,13.79
2022-11-07T20:26:58.743Z,13.70
2022-11-07T20:29:22.890Z,13.65
2022-11-07T20:31:45.306Z,13.81
2022-11-07T20:34:07.790Z,13.70
2022-11-07T20:36:31.182Z,13.83
2022-11-07T20:38:56.258Z,13.83
2022-11-07T20:41:17.866Z,13.81
2022-11-07T20:43:39.953Z,13.69
2022-11-07T20:46:13.047Z,13.70
2022-11-07T20:48:35.134Z,13.89
2022-11-07T20:50:56.595Z,13.75
2022-11-07T20:53:18.605Z,13.81
2022-11-07T20:55:42.675Z,13.91
2022-11-07T20:58:04.458Z,13.92
2022-11-07T21:00:25.988Z,13.97
2022-11-07T21:02:47.677Z,13.88
2022-11-07T21:05:17.719Z,13.82
2022-11-07T21:07:41.742Z,13.95
2022-11-07T21:10:03.366Z,13.95
2022-11-07T21:12:24.835Z,13.88
2022-11-07T21:14:46.287Z,13.92
2022-11-07T21:17:09.119Z,14.03
2022-11-07T21:19:30.679Z,13.92
2022-11-07T21:21:52.165Z,13.89
2022-11-07T21:24:13.641Z,13.96
2022-11-07T21:26:38.946Z,14.02
2022-11-07T21:29:02.136Z,13.95
2022-11-07T21:31:27.202Z,13.88
2022-11-07T21:33:48.680Z,13.86
2022-11-07T21:36:11.992Z,13.61
2022-11-07T21:38:33.478Z,13.43
2022-11-07T21:40:54.955Z,13.45
2022-11-07T21:43:16.639Z,13.57
2022-11-07T21:45:38.459Z,13.48
2022-11-07T21:47:59.929Z,13.31
2022-11-07T21:50:43.432Z,13.30
2022-11-07T21:53:02.854Z,13.30
2022-11-07T21:55:24.554Z,13.20
2022-11-07T21:57:46.402Z,13.20
2022-11-07T22:00:09.219Z,13.25
2022-11-07T22:02:30.793Z,13.20
2022-11-07T22:04:52.317Z,13.24
2022-11-07T22:07:13.794Z,13.11
2022-11-07T22:09:35.321Z,13.00
2022-11-07T22:11:56.850Z,12.88
2022-11-07T22:14:20.702Z,12.66
2022-11-07T22:16:42.558Z,12.77
2022-11-07T22:19:07.226Z,12.67
2022-11-07T22:21:31.519Z,12.70
2022-11-07T22:23:53.019Z,12.83
2022-11-07T22:26:17.010Z,12.82
2022-11-07T22:28:42.948Z,12.90
2022-11-07T22:31:09.534Z,12.93
2022-11-07T22:33:31.158Z,12.96
2022-11-07T22:35:52.689Z,12.96
2022-11-07T22:38:14.199Z,12.92
2022-11-07T22:40:35.690Z,12.84
2022-11-07T22:42:57.170Z,12.77
2022-11-07T22:45:18.653Z,12.80
2022-11-07T22:47:40.191Z,12.74
2022-11-07T22:50:01.668Z,12.78
2022-11-07T22:52:23.141Z,12.77
2022-11-07T22:54:44.620Z,12.81
2022-11-07T22:57:06.092Z,12.75
2022-11-07T22:59:27.635Z,12.80
2022-11-07T23:01:49.238Z,12.83
2022-11-07T23:04:15.076Z,12.76
2022-11-07T23:06:36.589Z,12.71
2022-11-07T23:08:59.408Z,12.74
2022-11-07T23:14:08.313Z,12.66
2022-11-07T23:16:35.165Z,12.52
2022-11-07T23:18:58.370Z,12.49
2022-11-07T23:21:20.925Z,12.54
2022-11-07T23:23:43.150Z,12.55
2022-11-07T23:26:07.433Z,12.77
2022-11-07T23:28:29.058Z,12.75
2022-11-07T23:30:52.157Z,12.74
2022-11-07T23:33:13.639Z,12.79
2022-11-07T23:35:35.110Z,12.64
2022-11-07T23:37:56.628Z,12.58
2022-11-07T23:40:18.103Z,12.52
2022-11-07T23:42:39.655Z,12.54
2022-11-07T23:45:19.791Z,12.55
2022-11-07T23:47:59.719Z,12.46
2022-11-07T23:50:39.684Z,12.36
2022-11-07T23:53:21.126Z,12.44
2022-11-07T23:55:42.578Z,12.51
2022-11-07T23:58:22.790Z,12.33
